sensor_id;sensor_type;location;lat;lon;timestamp;pressure;altitude;pressure_sealevel;temperature
68127;BMP180;54931;52.098;21.006;2023-02-26T00:01:31;98758.80;;;0.20
68127;BMP180;54931;52.098;21.006;2023-02-26T00:04:04;98762.40;;;0.16
68127;BMP180;54931;52.098;21.006;2023-02-26T00:06:37;98773.80;;;0.16
68127;BMP180;54931;52.098;21.006;2023-02-26T00:09:06;98781.40;;;0.10
68127;BMP180;54931;52.098;21.006;2023-02-26T00:11:37;98787.20;;;0.10
68127;BMP180;54931;52.098;21.006;2023-02-26T00:14:13;98795.80;;;0.10
68127;BMP180;54931;52.098;21.006;2023-02-26T00:16:41;98800.80;;;0.10
68127;BMP180;54931;52.098;21.006;2023-02-26T00:19:11;98810.60;;;0.10
68127;BMP180;54931;52.098;21.006;2023-02-26T00:21:40;98805.20;;;0.10
68127;BMP180;54931;52.098;21.006;2023-02-26T00:24:08;98812.80;;;0.16
68127;BMP180;54931;52.098;21.006;2023-02-26T00:26:36;98814.00;;;0.20
68127;BMP180;54931;52.098;21.006;2023-02-26T00:29:04;98819.00;;;0.30
68127;BMP180;54931;52.098;21.006;2023-02-26T00:31:32;98815.80;;;0.30
68127;BMP180;54931;52.098;21.006;2023-02-26T00:34:01;98815.80;;;0.40
68127;BMP180;54931;52.098;21.006;2023-02-26T00:39:48;98821.00;;;0.40
68127;BMP180;54931;52.098;21.006;2023-02-26T00:42:18;98829.60;;;0.40
68127;BMP180;54931;52.098;21.006;2023-02-26T00:44:47;98828.00;;;0.40
68127;BMP180;54931;52.098;21.006;2023-02-26T00:50:17;98830.00;;;0.40
68127;BMP180;54931;52.098;21.006;2023-02-26T00:53:12;98832.00;;;0.40
68127;BMP180;54931;52.098;21.006;2023-02-26T00:55:44;98839.00;;;0.40
68127;BMP180;54931;52.098;21.006;2023-02-26T00:58:12;98835.60;;;0.40
68127;BMP180;54931;52.098;21.006;2023-02-26T01:00:40;98836.80;;;0.30
68127;BMP180;54931;52.098;21.006;2023-02-26T01:03:08;98841.20;;;0.30
68127;BMP180;54931;52.098;21.006;2023-02-26T01:05:38;98846.20;;;0.28
68127;BMP180;54931;52.098;21.006;2023-02-26T01:08:23;98846.40;;;0.20
68127;BMP180;54931;52.098;21.006;2023-02-26T01:10:52;98847.00;;;0.20
68127;BMP180;54931;52.098;21.006;2023-02-26T01:13:20;98857.60;;;0.10
68127;BMP180;54931;52.098;21.006;2023-02-26T01:15:57;98864.20;;;0.10
68127;BMP180;54931;52.098;21.006;2023-02-26T01:19:06;98877.40;;;0.10
68127;BMP180;54931;52.098;21.006;2023-02-26T01:21:49;98879.20;;;0.10
68127;BMP180;54931;52.098;21.006;2023-02-26T01:24:22;98882.40;;;0.10
68127;BMP180;54931;52.098;21.006;2023-02-26T01:26:51;98893.60;;;0.08
68127;BMP180;54931;52.098;21.006;2023-02-26T01:29:20;98896.80;;;0.06
68127;BMP180;54931;52.098;21.006;2023-02-26T01:31:56;98900.00;;;0.00
68127;BMP180;54931;52.098;21.006;2023-02-26T01:34:56;98909.20;;;0.00
68127;BMP180;54931;52.098;21.006;2023-02-26T01:37:59;98907.00;;;0.00
68127;BMP180;54931;52.098;21.006;2023-02-26T01:43:56;98919.80;;;0.00
68127;BMP180;54931;52.098;21.006;2023-02-26T01:49:39;98935.80;;;0.00
68127;BMP180;54931;52.098;21.006;2023-02-26T01:55:24;98950.40;;;0.00
68127;BMP180;54931;52.098;21.006;2023-02-26T01:57:56;98953.80;;;0.00
68127;BMP180;54931;52.098;21.006;2023-02-26T02:00:25;98966.60;;;0.00
68127;BMP180;54931;52.098;21.006;2023-02-26T02:02:53;98965.80;;;0.00
68127;BMP180;54931;52.098;21.006;2023-02-26T02:05:31;98968.60;;;0.00
68127;BMP180;54931;52.098;21.006;2023-02-26T02:08:00;98980.80;;;-0.02
68127;BMP180;54931;52.098;21.006;2023-02-26T02:10:29;98981.20;;;-0.02
68127;BMP180;54931;52.098;21.006;2023-02-26T02:13:33;98990.20;;;-0.04
68127;BMP180;54931;52.098;21.006;2023-02-26T02:16:33;98994.60;;;-0.04
68127;BMP180;54931;52.098;21.006;2023-02-26T02:26:10;99006.80;;;-0.02
68127;BMP180;54931;52.098;21.006;2023-02-26T02:35:07;99023.20;;;-0.10
68127;BMP180;54931;52.098;21.006;2023-02-26T02:37:56;99019.80;;;-0.10
68127;BMP180;54931;52.098;21.006;2023-02-26T02:40:34;99026.60;;;-0.10
68127;BMP180;54931;52.098;21.006;2023-02-26T02:43:14;99031.00;;;-0.10
68127;BMP180;54931;52.098;21.006;2023-02-26T02:48:26;99043.00;;;-0.10
68127;BMP180;54931;52.098;21.006;2023-02-26T02:51:12;99053.40;;;-0.10
68127;BMP180;54931;52.098;21.006;2023-02-26T02:53:59;99055.00;;;-0.16
68127;BMP180;54931;52.098;21.006;2023-02-26T03:00:00;99058.60;;;-0.20
68127;BMP180;54931;52.098;21.006;2023-02-26T03:05:05;99074.20;;;-0.20
68127;BMP180;54931;52.098;21.006;2023-02-26T03:07:40;99078.80;;;-0.20
68127;BMP180;54931;52.098;21.006;2023-02-26T03:10:11;99088.00;;;-0.20
68127;BMP180;54931;52.098;21.006;2023-02-26T03:12:40;99096.80;;;-0.20
68127;BMP180;54931;52.098;21.006;2023-02-26T03:15:09;99096.80;;;-0.20
68127;BMP180;54931;52.098;21.006;2023-02-26T03:21:26;99108.80;;;-0.20
68127;BMP180;54931;52.098;21.006;2023-02-26T03:24:10;99117.80;;;-0.18
68127;BMP180;54931;52.098;21.006;2023-02-26T03:26:55;99119.20;;;-0.14
68127;BMP180;54931;52.098;21.006;2023-02-26T03:30:08;99128.20;;;-0.10
68127;BMP180;54931;52.098;21.006;2023-02-26T03:33:01;99138.20;;;-0.12
68127;BMP180;54931;52.098;21.006;2023-02-26T03:39:03;99149.20;;;-0.10
68127;BMP180;54931;52.098;21.006;2023-02-26T03:41:40;99151.40;;;-0.16
68127;BMP180;54931;52.098;21.006;2023-02-26T03:45:02;99157.40;;;-0.12
68127;BMP180;54931;52.098;21.006;2023-02-26T03:47:34;99162.60;;;-0.18
68127;BMP180;54931;52.098;21.006;2023-02-26T03:50:14;99163.40;;;-0.16
68127;BMP180;54931;52.098;21.006;2023-02-26T03:52:46;99162.00;;;-0.14
68127;BMP180;54931;52.098;21.006;2023-02-26T03:55:49;99162.80;;;-0.20
68127;BMP180;54931;52.098;21.006;2023-02-26T03:58:19;99165.40;;;-0.16
68127;BMP180;54931;52.098;21.006;2023-02-26T04:01:08;99171.80;;;-0.18
68127;BMP180;54931;52.098;21.006;2023-02-26T04:03:49;99171.60;;;-0.20
68127;BMP180;54931;52.098;21.006;2023-02-26T04:06:19;99178.40;;;-0.20
68127;BMP180;54931;52.098;21.006;2023-02-26T04:08:47;99182.20;;;-0.18
68127;BMP180;54931;52.098;21.006;2023-02-26T04:11:20;99189.20;;;-0.16
68127;BMP180;54931;52.098;21.006;2023-02-26T04:13:48;99192.20;;;-0.18
68127;BMP180;54931;52.098;21.006;2023-02-26T04:16:17;99193.60;;;-0.20
68127;BMP180;54931;52.098;21.006;2023-02-26T04:18:45;99193.40;;;-0.18
68127;BMP180;54931;52.098;21.006;2023-02-26T04:21:17;99200.60;;;-0.18
68127;BMP180;54931;52.098;21.006;2023-02-26T04:23:47;99205.60;;;-0.16
68127;BMP180;54931;52.098;21.006;2023-02-26T04:26:16;99206.40;;;-0.10
68127;BMP180;54931;52.098;21.006;2023-02-26T04:28:44;99209.40;;;-0.14
68127;BMP180;54931;52.098;21.006;2023-02-26T04:31:12;99213.60;;;-0.14
68127;BMP180;54931;52.098;21.006;2023-02-26T04:33:40;99218.20;;;-0.12
68127;BMP180;54931;52.098;21.006;2023-02-26T04:36:08;99218.80;;;-0.10
68127;BMP180;54931;52.098;21.006;2023-02-26T04:38:36;99222.40;;;-0.10
68127;BMP180;54931;52.098;21.006;2023-02-26T04:41:05;99223.60;;;-0.10
68127;BMP180;54931;52.098;21.006;2023-02-26T04:43:33;99222.60;;;-0.10
68127;BMP180;54931;52.098;21.006;2023-02-26T04:46:02;99230.40;;;-0.18
68127;BMP180;54931;52.098;21.006;2023-02-26T04:48:30;99234.20;;;-0.16
68127;BMP180;54931;52.098;21.006;2023-02-26T04:50:58;99233.20;;;-0.18
68127;BMP180;54931;52.098;21.006;2023-02-26T04:53:26;99234.60;;;-0.20
68127;BMP180;54931;52.098;21.006;2023-02-26T04:55:54;99236.60;;;-0.20
68127;BMP180;54931;52.098;21.006;2023-02-26T04:58:22;99235.00;;;-0.20
68127;BMP180;54931;52.098;21.006;2023-02-26T05:00:51;99242.80;;;-0.20
68127;BMP180;54931;52.098;21.006;2023-02-26T05:03:22;99244.40;;;-0.20
68127;BMP180;54931;52.098;21.006;2023-02-26T05:05:50;99246.20;;;-0.20
68127;BMP180;54931;52.098;21.006;2023-02-26T05:08:18;99249.20;;;-0.20
68127;BMP180;54931;52.098;21.006;2023-02-26T05:10:46;99252.00;;;-0.30
68127;BMP180;54931;52.098;21.006;2023-02-26T05:13:13;99256.60;;;-0.30
68127;BMP180;54931;52.098;21.006;2023-02-26T05:15:41;99259.80;;;-0.30
68127;BMP180;54931;52.098;21.006;2023-02-26T05:18:09;99265.40;;;-0.30
68127;BMP180;54931;52.098;21.006;2023-02-26T05:20:37;99268.60;;;-0.32
68127;BMP180;54931;52.098;21.006;2023-02-26T05:23:05;99273.40;;;-0.30
68127;BMP180;54931;52.098;21.006;2023-02-26T05:25:32;99275.60;;;-0.32
68127;BMP180;54931;52.098;21.006;2023-02-26T05:28:01;99279.60;;;-0.40
68127;BMP180;54931;52.098;21.006;2023-02-26T05:30:28;99284.80;;;-0.40
68127;BMP180;54931;52.098;21.006;2023-02-26T05:32:56;99293.60;;;-0.40
68127;BMP180;54931;52.098;21.006;2023-02-26T05:35:24;99304.60;;;-0.40
68127;BMP180;54931;52.098;21.006;2023-02-26T05:37:52;99311.80;;;-0.40
68127;BMP180;54931;52.098;21.006;2023-02-26T05:40:19;99314.80;;;-0.40
68127;BMP180;54931;52.098;21.006;2023-02-26T05:42:47;99327.00;;;-0.46
68127;BMP180;54931;52.098;21.006;2023-02-26T05:45:15;99327.20;;;-0.50
68127;BMP180;54931;52.098;21.006;2023-02-26T05:47:43;99329.20;;;-0.50
68127;BMP180;54931;52.098;21.006;2023-02-26T05:50:11;99334.20;;;-0.58
68127;BMP180;54931;52.098;21.006;2023-02-26T05:52:40;99338.40;;;-0.58
68127;BMP180;54931;52.098;21.006;2023-02-26T05:55:08;99343.40;;;-0.60
68127;BMP180;54931;52.098;21.006;2023-02-26T05:57:37;99348.20;;;-0.60
68127;BMP180;54931;52.098;21.006;2023-02-26T06:00:07;99357.00;;;-0.60
68127;BMP180;54931;52.098;21.006;2023-02-26T06:02:36;99362.00;;;-0.60
68127;BMP180;54931;52.098;21.006;2023-02-26T06:05:05;99367.00;;;-0.60
68127;BMP180;54931;52.098;21.006;2023-02-26T06:07:33;99368.00;;;-0.60
68127;BMP180;54931;52.098;21.006;2023-02-26T06:10:00;99371.20;;;-0.60
68127;BMP180;54931;52.098;21.006;2023-02-26T06:12:28;99373.60;;;-0.60
68127;BMP180;54931;52.098;21.006;2023-02-26T06:14:56;99374.40;;;-0.60
68127;BMP180;54931;52.098;21.006;2023-02-26T06:17:24;99382.60;;;-0.60
68127;BMP180;54931;52.098;21.006;2023-02-26T06:19:52;99385.60;;;-0.60
68127;BMP180;54931;52.098;21.006;2023-02-26T06:22:20;99389.00;;;-0.62
68127;BMP180;54931;52.098;21.006;2023-02-26T06:24:47;99401.00;;;-0.70
68127;BMP180;54931;52.098;21.006;2023-02-26T06:27:16;99411.20;;;-0.70
68127;BMP180;54931;52.098;21.006;2023-02-26T06:29:44;99418.20;;;-0.80
68127;BMP180;54931;52.098;21.006;2023-02-26T06:32:12;99428.80;;;-0.84
68127;BMP180;54931;52.098;21.006;2023-02-26T06:34:39;99434.60;;;-0.90
68127;BMP180;54931;52.098;21.006;2023-02-26T06:37:07;99433.80;;;-1.00
68127;BMP180;54931;52.098;21.006;2023-02-26T06:39:35;99442.80;;;-1.10
68127;BMP180;54931;52.098;21.006;2023-02-26T06:42:03;99451.80;;;-1.10
68127;BMP180;54931;52.098;21.006;2023-02-26T06:44:31;99450.40;;;-1.10
68127;BMP180;54931;52.098;21.006;2023-02-26T06:46:59;99452.00;;;-1.10
68127;BMP180;54931;52.098;21.006;2023-02-26T06:49:27;99459.40;;;-1.20
68127;BMP180;54931;52.098;21.006;2023-02-26T06:51:55;99463.20;;;-1.20
68127;BMP180;54931;52.098;21.006;2023-02-26T06:54:23;99472.80;;;-1.20
68127;BMP180;54931;52.098;21.006;2023-02-26T06:56:51;99482.80;;;-1.20
68127;BMP180;54931;52.098;21.006;2023-02-26T06:59:19;99488.60;;;-1.20
68127;BMP180;54931;52.098;21.006;2023-02-26T07:01:48;99493.60;;;-1.20
68127;BMP180;54931;52.098;21.006;2023-02-26T07:04:16;99501.00;;;-1.20
68127;BMP180;54931;52.098;21.006;2023-02-26T07:06:44;99501.40;;;-1.20
68127;BMP180;54931;52.098;21.006;2023-02-26T07:09:12;99510.60;;;-1.20
68127;BMP180;54931;52.098;21.006;2023-02-26T07:11:40;99512.00;;;-1.20
68127;BMP180;54931;52.098;21.006;2023-02-26T07:14:07;99516.20;;;-1.20
68127;BMP180;54931;52.098;21.006;2023-02-26T07:16:35;99518.20;;;-1.20
68127;BMP180;54931;52.098;21.006;2023-02-26T07:19:03;99520.80;;;-1.20
68127;BMP180;54931;52.098;21.006;2023-02-26T07:21:31;99525.00;;;-1.14
68127;BMP180;54931;52.098;21.006;2023-02-26T07:23:59;99525.00;;;-1.16
68127;BMP180;54931;52.098;21.006;2023-02-26T07:26:27;99531.20;;;-1.16
68127;BMP180;54931;52.098;21.006;2023-02-26T07:28:54;99538.40;;;-1.10
68127;BMP180;54931;52.098;21.006;2023-02-26T07:31:22;99545.00;;;-1.10
68127;BMP180;54931;52.098;21.006;2023-02-26T07:33:50;99552.40;;;-1.10
68127;BMP180;54931;52.098;21.006;2023-02-26T07:36:18;99555.20;;;-1.02
68127;BMP180;54931;52.098;21.006;2023-02-26T07:38:46;99557.00;;;-1.00
68127;BMP180;54931;52.098;21.006;2023-02-26T07:41:14;99562.60;;;-0.98
68127;BMP180;54931;52.098;21.006;2023-02-26T07:43:42;99569.60;;;-0.90
68127;BMP180;54931;52.098;21.006;2023-02-26T07:46:10;99571.60;;;-0.82
68127;BMP180;54931;52.098;21.006;2023-02-26T07:48:38;99576.40;;;-0.80
68127;BMP180;54931;52.098;21.006;2023-02-26T07:51:06;99583.80;;;-0.76
68127;BMP180;54931;52.098;21.006;2023-02-26T07:53:34;99577.20;;;-0.70
68127;BMP180;54931;52.098;21.006;2023-02-26T07:56:03;99582.40;;;-0.70
68127;BMP180;54931;52.098;21.006;2023-02-26T07:58:30;99583.60;;;-0.60
68127;BMP180;54931;52.098;21.006;2023-02-26T08:00:58;99585.40;;;-0.56
68127;BMP180;54931;52.098;21.006;2023-02-26T08:03:26;99597.20;;;-0.52
68127;BMP180;54931;52.098;21.006;2023-02-26T08:05:54;99600.80;;;-0.50
68127;BMP180;54931;52.098;21.006;2023-02-26T08:08:22;99611.00;;;-0.50
68127;BMP180;54931;52.098;21.006;2023-02-26T08:10:50;99617.80;;;-0.48
68127;BMP180;54931;52.098;21.006;2023-02-26T08:13:19;99623.20;;;-0.40
68127;BMP180;54931;52.098;21.006;2023-02-26T08:15:47;99629.60;;;-0.48
68127;BMP180;54931;52.098;21.006;2023-02-26T08:18:15;99634.20;;;-0.50
68127;BMP180;54931;52.098;21.006;2023-02-26T08:20:43;99634.20;;;-0.50
68127;BMP180;54931;52.098;21.006;2023-02-26T08:23:11;99639.40;;;-0.50
68127;BMP180;54931;52.098;21.006;2023-02-26T08:25:39;99639.80;;;-0.50
68127;BMP180;54931;52.098;21.006;2023-02-26T08:28:07;99641.40;;;-0.50
68127;BMP180;54931;52.098;21.006;2023-02-26T08:30:35;99646.40;;;-0.50
68127;BMP180;54931;52.098;21.006;2023-02-26T08:33:03;99646.60;;;-0.58
68127;BMP180;54931;52.098;21.006;2023-02-26T08:35:31;99649.20;;;-0.60
68127;BMP180;54931;52.098;21.006;2023-02-26T08:37:58;99655.00;;;-0.60
68127;BMP180;54931;52.098;21.006;2023-02-26T08:40:27;99661.40;;;-0.58
68127;BMP180;54931;52.098;21.006;2023-02-26T08:42:54;99663.80;;;-0.50
68127;BMP180;54931;52.098;21.006;2023-02-26T08:45:22;99672.60;;;-0.50
68127;BMP180;54931;52.098;21.006;2023-02-26T08:47:50;99677.60;;;-0.50
68127;BMP180;54931;52.098;21.006;2023-02-26T08:50:20;99683.80;;;-0.44
68127;BMP180;54931;52.098;21.006;2023-02-26T08:52:48;99688.40;;;-0.40
68127;BMP180;54931;52.098;21.006;2023-02-26T08:55:16;99696.60;;;-0.30
68127;BMP180;54931;52.098;21.006;2023-02-26T08:57:44;99703.80;;;-0.26
68127;BMP180;54931;52.098;21.006;2023-02-26T09:00:13;99705.60;;;-0.20
68127;BMP180;54931;52.098;21.006;2023-02-26T09:02:45;99715.60;;;-0.20
68127;BMP180;54931;52.098;21.006;2023-02-26T09:05:15;99716.40;;;-0.20
68127;BMP180;54931;52.098;21.006;2023-02-26T09:07:44;99727.40;;;-0.20
68127;BMP180;54931;52.098;21.006;2023-02-26T09:10:13;99727.80;;;-0.20
68127;BMP180;54931;52.098;21.006;2023-02-26T09:12:42;99730.20;;;-0.20
68127;BMP180;54931;52.098;21.006;2023-02-26T09:15:11;99739.20;;;-0.30
68127;BMP180;54931;52.098;21.006;2023-02-26T09:17:40;99739.40;;;-0.30
68127;BMP180;54931;52.098;21.006;2023-02-26T09:20:09;99749.80;;;-0.30
68127;BMP180;54931;52.098;21.006;2023-02-26T09:22:37;99752.20;;;-0.32
68127;BMP180;54931;52.098;21.006;2023-02-26T09:25:07;99754.40;;;-0.30
68127;BMP180;54931;52.098;21.006;2023-02-26T09:27:35;99762.00;;;-0.40
68127;BMP180;54931;52.098;21.006;2023-02-26T09:30:05;99763.60;;;-0.40
68127;BMP180;54931;52.098;21.006;2023-02-26T09:32:33;99770.60;;;-0.40
68127;BMP180;54931;52.098;21.006;2023-02-26T09:35:01;99772.80;;;-0.40
68127;BMP180;54931;52.098;21.006;2023-02-26T09:37:31;99775.80;;;-0.40
68127;BMP180;54931;52.098;21.006;2023-02-26T09:39:59;99779.40;;;-0.40
68127;BMP180;54931;52.098;21.006;2023-02-26T09:42:53;99784.40;;;-0.40
68127;BMP180;54931;52.098;21.006;2023-02-26T09:45:42;99787.60;;;-0.40
68127;BMP180;54931;52.098;21.006;2023-02-26T09:48:15;99789.20;;;-0.40
68127;BMP180;54931;52.098;21.006;2023-02-26T09:50:51;99793.60;;;-0.40
68127;BMP180;54931;52.098;21.006;2023-02-26T09:53:37;99797.80;;;-0.36
68127;BMP180;54931;52.098;21.006;2023-02-26T09:56:16;99798.20;;;-0.30
68127;BMP180;54931;52.098;21.006;2023-02-26T09:58:46;99799.80;;;-0.30
68127;BMP180;54931;52.098;21.006;2023-02-26T10:01:34;99799.60;;;-0.26
68127;BMP180;54931;52.098;21.006;2023-02-26T10:04:47;99803.80;;;-0.20
68127;BMP180;54931;52.098;21.006;2023-02-26T10:07:33;99806.20;;;-0.20
68127;BMP180;54931;52.098;21.006;2023-02-26T10:12:58;99825.20;;;-0.12
68127;BMP180;54931;52.098;21.006;2023-02-26T10:15:39;99828.60;;;-0.12
68127;BMP180;54931;52.098;21.006;2023-02-26T10:18:32;99829.60;;;-0.12
68127;BMP180;54931;52.098;21.006;2023-02-26T10:21:23;99833.40;;;-0.10
68127;BMP180;54931;52.098;21.006;2023-02-26T10:24:05;99838.40;;;-0.10
68127;BMP180;54931;52.098;21.006;2023-02-26T10:26:54;99844.40;;;-0.12
68127;BMP180;54931;52.098;21.006;2023-02-26T10:30:05;99846.00;;;-0.10
68127;BMP180;54931;52.098;21.006;2023-02-26T10:32:49;99851.40;;;-0.10
68127;BMP180;54931;52.098;21.006;2023-02-26T10:35:18;99855.60;;;-0.16
68127;BMP180;54931;52.098;21.006;2023-02-26T10:38:14;99855.20;;;-0.14
68127;BMP180;54931;52.098;21.006;2023-02-26T10:40:54;99857.60;;;-0.20
68127;BMP180;54931;52.098;21.006;2023-02-26T10:43:41;99870.20;;;-0.20
68127;BMP180;54931;52.098;21.006;2023-02-26T10:46:28;99874.40;;;-0.20
68127;BMP180;54931;52.098;21.006;2023-02-26T10:49:25;99878.20;;;-0.20
68127;BMP180;54931;52.098;21.006;2023-02-26T10:51:57;99885.80;;;-0.20
68127;BMP180;54931;52.098;21.006;2023-02-26T10:54:53;99882.60;;;-0.20
68127;BMP180;54931;52.098;21.006;2023-02-26T10:57:29;99889.60;;;-0.20
68127;BMP180;54931;52.098;21.006;2023-02-26T11:00:04;99893.20;;;-0.20
68127;BMP180;54931;52.098;21.006;2023-02-26T11:02:44;99899.40;;;-0.20
68127;BMP180;54931;52.098;21.006;2023-02-26T11:05:19;99902.40;;;-0.20
68127;BMP180;54931;52.098;21.006;2023-02-26T11:07:55;99906.20;;;-0.22
68127;BMP180;54931;52.098;21.006;2023-02-26T11:10:51;99913.00;;;-0.20
68127;BMP180;54931;52.098;21.006;2023-02-26T11:13:25;99917.80;;;-0.30
68127;BMP180;54931;52.098;21.006;2023-02-26T11:15:56;99912.80;;;-0.32
68127;BMP180;54931;52.098;21.006;2023-02-26T11:18:38;99909.60;;;-0.40
68127;BMP180;54931;52.098;21.006;2023-02-26T11:21:25;99913.60;;;-0.40
68127;BMP180;54931;52.098;21.006;2023-02-26T11:25:05;99914.40;;;-0.40
68127;BMP180;54931;52.098;21.006;2023-02-26T11:27:23;99921.80;;;-0.40
68127;BMP180;54931;52.098;21.006;2023-02-26T11:29:58;99919.80;;;-0.30
68127;BMP180;54931;52.098;21.006;2023-02-26T11:32:34;99927.20;;;-0.30
68127;BMP180;54931;52.098;21.006;2023-02-26T11:35:07;99922.80;;;-0.22
68127;BMP180;54931;52.098;21.006;2023-02-26T11:37:39;99928.60;;;-0.20
68127;BMP180;54931;52.098;21.006;2023-02-26T11:40:25;99929.60;;;-0.10
68127;BMP180;54931;52.098;21.006;2023-02-26T11:43:01;99933.60;;;0.00
68127;BMP180;54931;52.098;21.006;2023-02-26T11:45:36;99944.00;;;0.12
68127;BMP180;54931;52.098;21.006;2023-02-26T11:48:12;99945.00;;;0.28
68127;BMP180;54931;52.098;21.006;2023-02-26T11:50:46;99945.80;;;0.40
68127;BMP180;54931;52.098;21.006;2023-02-26T11:54:09;99952.60;;;0.50
68127;BMP180;54931;52.098;21.006;2023-02-26T11:56:25;99966.00;;;0.50
68127;BMP180;54931;52.098;21.006;2023-02-26T11:58:54;99966.80;;;0.50
68127;BMP180;54931;52.098;21.006;2023-02-26T12:01:27;99968.00;;;0.52
68127;BMP180;54931;52.098;21.006;2023-02-26T12:04:00;99975.20;;;0.50
68127;BMP180;54931;52.098;21.006;2023-02-26T12:06:28;99975.00;;;0.50
68127;BMP180;54931;52.098;21.006;2023-02-26T12:08:56;99982.80;;;0.50
68127;BMP180;54931;52.098;21.006;2023-02-26T12:15:19;99985.20;;;0.54
68127;BMP180;54931;52.098;21.006;2023-02-26T12:21:10;99998.80;;;0.56
68127;BMP180;54931;52.098;21.006;2023-02-26T12:26:24;100006.20;;;0.50
68127;BMP180;54931;52.098;21.006;2023-02-26T12:35:29;100010.20;;;0.30
68127;BMP180;54931;52.098;21.006;2023-02-26T12:38:18;100012.80;;;0.30
68127;BMP180;54931;52.098;21.006;2023-02-26T12:41:54;100013.20;;;0.32
68127;BMP180;54931;52.098;21.006;2023-02-26T12:44:43;100015.60;;;0.42
68127;BMP180;54931;52.098;21.006;2023-02-26T12:54:24;100035.00;;;0.70
68127;BMP180;54931;52.098;21.006;2023-02-26T13:06:07;100044.20;;;0.70
68127;BMP180;54931;52.098;21.006;2023-02-26T13:08:49;100043.60;;;0.70
68127;BMP180;54931;52.098;21.006;2023-02-26T13:12:04;100049.60;;;0.70
68127;BMP180;54931;52.098;21.006;2023-02-26T13:20:23;100049.60;;;0.70
68127;BMP180;54931;52.098;21.006;2023-02-26T13:22:55;100052.80;;;0.70
68127;BMP180;54931;52.098;21.006;2023-02-26T13:25:55;100063.60;;;0.70
68127;BMP180;54931;52.098;21.006;2023-02-26T13:28:51;100060.00;;;0.70
68127;BMP180;54931;52.098;21.006;2023-02-26T13:31:51;100056.00;;;0.70
68127;BMP180;54931;52.098;21.006;2023-02-26T13:34:56;100071.60;;;0.76
68127;BMP180;54931;52.098;21.006;2023-02-26T13:51:53;100090.40;;;0.84
68127;BMP180;54931;52.098;21.006;2023-02-26T13:57:36;100090.00;;;0.80
68127;BMP180;54931;52.098;21.006;2023-02-26T14:00:27;100089.60;;;0.88
68127;BMP180;54931;52.098;21.006;2023-02-26T14:03:10;100097.40;;;0.98
68127;BMP180;54931;52.098;21.006;2023-02-26T14:11:33;100103.80;;;1.20
68127;BMP180;54931;52.098;21.006;2023-02-26T14:19:32;100108.40;;;1.30
68127;BMP180;54931;52.098;21.006;2023-02-26T14:22:20;100108.60;;;1.38
68127;BMP180;54931;52.098;21.006;2023-02-26T14:24:57;100106.60;;;1.46
68127;BMP180;54931;52.098;21.006;2023-02-26T14:27:39;100111.20;;;1.50
68127;BMP180;54931;52.098;21.006;2023-02-26T14:35:40;100122.00;;;1.60
68127;BMP180;54931;52.098;21.006;2023-02-26T14:38:32;100123.20;;;1.60
68127;BMP180;54931;52.098;21.006;2023-02-26T14:41:12;100127.00;;;1.60
68127;BMP180;54931;52.098;21.006;2023-02-26T14:44:17;100130.60;;;1.60
68127;BMP180;54931;52.098;21.006;2023-02-26T14:46:44;100140.60;;;1.60
68127;BMP180;54931;52.098;21.006;2023-02-26T14:49:34;100141.40;;;1.50
68127;BMP180;54931;52.098;21.006;2023-02-26T15:04:50;100158.20;;;1.20
68127;BMP180;54931;52.098;21.006;2023-02-26T15:10:32;100169.80;;;1.06
68127;BMP180;54931;52.098;21.006;2023-02-26T15:13:33;100180.00;;;1.00
68127;BMP180;54931;52.098;21.006;2023-02-26T15:16:18;100177.40;;;0.90
68127;BMP180;54931;52.098;21.006;2023-02-26T15:25:41;100191.60;;;0.80
68127;BMP180;54931;52.098;21.006;2023-02-26T15:30:51;100192.80;;;0.70
68127;BMP180;54931;52.098;21.006;2023-02-26T15:33:24;100197.80;;;0.70
68127;BMP180;54931;52.098;21.006;2023-02-26T15:35:55;100203.80;;;0.70
68127;BMP180;54931;52.098;21.006;2023-02-26T15:38:24;100206.20;;;0.70
68127;BMP180;54931;52.098;21.006;2023-02-26T15:41:02;100205.20;;;0.68
68127;BMP180;54931;52.098;21.006;2023-02-26T15:43:31;100205.20;;;0.60
68127;BMP180;54931;52.098;21.006;2023-02-26T15:45:59;100206.80;;;0.60
68127;BMP180;54931;52.098;21.006;2023-02-26T15:48:30;100206.20;;;0.52
68127;BMP180;54931;52.098;21.006;2023-02-26T15:51:06;100210.00;;;0.50
68127;BMP180;54931;52.098;21.006;2023-02-26T15:53:48;100212.00;;;0.40
68127;BMP180;54931;52.098;21.006;2023-02-26T15:56:23;100220.40;;;0.40
68127;BMP180;54931;52.098;21.006;2023-02-26T15:58:58;100220.00;;;0.30
68127;BMP180;54931;52.098;21.006;2023-02-26T16:01:28;100224.80;;;0.30
68127;BMP180;54931;52.098;21.006;2023-02-26T16:04:02;100227.80;;;0.20
68127;BMP180;54931;52.098;21.006;2023-02-26T16:06:55;100231.20;;;0.10
68127;BMP180;54931;52.098;21.006;2023-02-26T16:09:33;100234.20;;;0.00
68127;BMP180;54931;52.098;21.006;2023-02-26T16:12:11;100237.40;;;-0.08
68127;BMP180;54931;52.098;21.006;2023-02-26T16:14:49;100239.00;;;-0.16
68127;BMP180;54931;52.098;21.006;2023-02-26T16:17:26;100248.00;;;-0.26
68127;BMP180;54931;52.098;21.006;2023-02-26T16:19:59;100244.40;;;-0.36
68127;BMP180;54931;52.098;21.006;2023-02-26T16:22:45;100245.80;;;-0.44
68127;BMP180;54931;52.098;21.006;2023-02-26T16:25:29;100250.00;;;-0.54
68127;BMP180;54931;52.098;21.006;2023-02-26T16:28:02;100260.60;;;-0.60
68127;BMP180;54931;52.098;21.006;2023-02-26T16:30:37;100262.00;;;-0.70
68127;BMP180;54931;52.098;21.006;2023-02-26T16:33:13;100272.40;;;-0.70
68127;BMP180;54931;52.098;21.006;2023-02-26T16:36:12;100275.60;;;-0.80
68127;BMP180;54931;52.098;21.006;2023-02-26T16:38:48;100279.60;;;-0.82
68127;BMP180;54931;52.098;21.006;2023-02-26T16:41:23;100281.20;;;-0.90
68127;BMP180;54931;52.098;21.006;2023-02-26T16:43:55;100287.60;;;-0.90
68127;BMP180;54931;52.098;21.006;2023-02-26T16:46:38;100292.00;;;-0.90
68127;BMP180;54931;52.098;21.006;2023-02-26T16:49:28;100293.00;;;-0.90
68127;BMP180;54931;52.098;21.006;2023-02-26T16:51:58;100295.80;;;-0.90
68127;BMP180;54931;52.098;21.006;2023-02-26T16:54:39;100300.80;;;-0.90
68127;BMP180;54931;52.098;21.006;2023-02-26T16:57:17;100298.80;;;-0.90
68127;BMP180;54931;52.098;21.006;2023-02-26T16:59:52;100302.00;;;-0.90
68127;BMP180;54931;52.098;21.006;2023-02-26T17:02:25;100305.80;;;-0.90
68127;BMP180;54931;52.098;21.006;2023-02-26T17:05:01;100303.00;;;-1.00
68127;BMP180;54931;52.098;21.006;2023-02-26T17:07:34;100304.20;;;-1.00